createdAt,value
2019-03-05T05:11:37.220Z,8.81
2019-03-05T05:12:37.214Z,8.77
2019-03-05T05:13:37.201Z,8.75
2019-03-05T05:14:37.188Z,8.80
2019-03-05T05:15:37.178Z,8.75
2019-03-05T05:16:37.167Z,8.86
2019-03-05T05:17:37.154Z,8.80
2019-03-05T05:18:37.142Z,8.81
2019-03-05T05:19:37.137Z,8.85
2019-03-05T05:21:37.116Z,8.88
2019-03-05T05:22:37.110Z,8.80
2019-03-05T05:23:37.090Z,8.85
2019-03-05T05:24:37.078Z,8.78
2019-03-05T05:25:37.064Z,8.81
2019-03-05T05:26:37.053Z,8.78
2019-03-05T05:27:37.041Z,8.80
2019-03-05T05:28:37.035Z,8.83
2019-03-05T05:29:37.024Z,8.88
2019-03-05T05:30:37.014Z,8.78
2019-03-05T05:31:37.001Z,8.71
2019-03-05T05:32:36.987Z,8.71
2019-03-05T05:33:36.973Z,8.80
2019-03-05T05:34:36.963Z,8.83
2019-03-05T05:35:36.963Z,8.85
2019-03-05T05:36:36.940Z,8.86
2019-03-05T05:37:36.929Z,8.85
2019-03-05T05:38:36.939Z,8.75
2019-03-05T05:39:36.912Z,8.90
2019-03-05T05:40:36.893Z,8.88
2019-03-05T05:41:36.882Z,8.75
2019-03-05T05:42:36.871Z,8.75
2019-03-05T05:43:36.860Z,8.78
2019-03-05T05:44:36.849Z,8.72
2019-03-05T05:45:36.840Z,8.81
2019-03-05T05:46:36.826Z,8.75
2019-03-05T05:47:36.816Z,8.74
2019-03-05T05:48:36.812Z,8.71
2019-03-05T05:49:36.796Z,8.75
2019-03-05T05:50:36.787Z,8.83
2019-03-05T05:51:36.772Z,8.81
2019-03-05T05:52:36.759Z,8.78
2019-03-05T05:53:36.748Z,8.77
2019-03-05T05:54:36.735Z,8.85
2019-03-05T05:55:36.731Z,8.85
2019-03-05T05:56:36.714Z,8.78
2019-03-05T05:57:36.710Z,8.80
2019-03-05T05:58:36.707Z,8.81
2019-03-05T05:59:36.679Z,8.78
2019-03-05T06:00:36.676Z,8.83
2019-03-05T06:01:36.669Z,8.85
2019-03-05T06:02:36.646Z,8.75
2019-03-05T06:03:37.893Z,8.77
2019-03-05T06:04:36.623Z,8.80
2019-03-05T06:05:36.611Z,8.88
2019-03-05T06:06:36.600Z,8.68
2019-03-05T06:07:36.594Z,8.75
2019-03-05T06:08:36.583Z,8.63
2019-03-05T06:09:36.567Z,8.55
2019-03-05T06:10:36.555Z,8.50
2019-03-05T06:11:36.547Z,8.55
2019-03-05T06:12:36.538Z,8.42
2019-03-05T06:13:36.527Z,8.38
2019-03-05T06:14:36.510Z,8.31
2019-03-05T06:15:36.498Z,8.41
2019-03-05T06:16:36.487Z,8.30
2019-03-05T06:17:36.476Z,8.27
2019-03-05T06:18:36.475Z,8.39
2019-03-05T06:19:36.457Z,8.37
2019-03-05T06:20:36.443Z,8.31
2019-03-05T06:21:36.432Z,8.42
2019-03-05T06:22:36.423Z,8.38
2019-03-05T06:23:36.412Z,8.44
2019-03-05T06:24:36.399Z,8.37
2019-03-05T06:25:36.385Z,8.46
2019-03-05T06:26:36.373Z,8.47
2019-03-05T06:27:36.367Z,8.46
2019-03-05T06:28:36.356Z,8.46
2019-03-05T06:29:36.346Z,8.46
2019-03-05T06:30:36.328Z,8.49
2019-03-05T06:31:36.324Z,8.50
2019-03-05T06:32:36.308Z,8.52
2019-03-05T06:33:36.299Z,8.56
2019-03-05T06:34:36.284Z,8.59
2019-03-05T06:35:36.274Z,8.55
2019-03-05T06:36:36.262Z,8.52
2019-03-05T06:37:36.254Z,8.46
2019-03-05T06:38:36.238Z,8.50
2019-03-05T06:39:36.228Z,8.47
2019-03-05T06:40:36.216Z,8.50
2019-03-05T06:41:36.205Z,8.44
2019-03-05T06:42:36.192Z,8.57
2019-03-05T06:43:36.184Z,8.52
2019-03-05T06:44:36.172Z,8.53
2019-03-05T06:45:36.163Z,8.56
2019-03-05T06:46:36.151Z,8.60
2019-03-05T06:47:36.139Z,8.55
2019-03-05T06:48:36.124Z,8.53
2019-03-05T06:49:36.121Z,8.71
2019-03-05T06:50:36.106Z,8.62
2019-03-05T06:51:36.091Z,8.67
2019-03-05T06:52:36.079Z,8.65
2019-03-05T06:53:36.068Z,8.71
2019-03-05T06:54:36.058Z,8.68
2019-03-05T06:55:36.045Z,8.70
2019-03-05T06:56:36.035Z,8.77
2019-03-05T06:57:36.024Z,8.71
2019-03-05T06:58:36.017Z,8.71
2019-03-05T06:59:36.002Z,8.74
2019-03-05T07:00:35.997Z,8.83
2019-03-05T07:01:35.984Z,8.85
2019-03-05T07:02:35.967Z,8.77
2019-03-05T07:03:35.961Z,8.75
2019-03-05T07:04:35.943Z,8.78
2019-03-05T07:05:35.937Z,8.86
2019-03-05T07:06:35.926Z,8.92
2019-03-05T07:07:35.912Z,8.96
2019-03-05T07:08:35.900Z,8.99
2019-03-05T07:09:35.892Z,9.04
2019-03-05T07:10:35.875Z,9.11
2019-03-05T07:11:35.867Z,9.13
2019-03-05T07:12:35.860Z,9.15
2019-03-05T07:13:35.841Z,9.13
2019-03-05T07:14:35.831Z,9.17
2019-03-05T07:15:35.822Z,9.26
2019-03-05T07:16:35.815Z,9.26
2019-03-05T07:17:35.800Z,9.33
2019-03-05T07:18:35.787Z,9.47
2019-03-05T07:19:35.777Z,9.69
2019-03-05T07:20:35.765Z,9.74
2019-03-05T07:21:35.760Z,9.94
2019-03-05T07:22:35.762Z,10.21
2019-03-05T07:23:35.738Z,10.20
2019-03-05T07:24:35.717Z,10.45
2019-03-05T07:25:35.707Z,10.74
2019-03-05T07:26:35.696Z,10.93
2019-03-05T07:27:35.685Z,11.22
2019-03-05T07:28:35.681Z,11.49
2019-03-05T07:29:35.663Z,11.89
2019-03-05T07:30:35.653Z,11.89
2019-03-05T07:31:35.642Z,12.45
2019-03-05T07:32:35.637Z,12.72
2019-03-05T07:33:35.620Z,12.93
2019-03-05T07:34:35.608Z,13.20
2019-03-05T07:35:35.599Z,13.05
2019-03-05T07:36:35.584Z,13.04
2019-03-05T07:37:35.579Z,13.29
2019-03-05T07:38:35.567Z,13.17
2019-03-05T07:39:35.554Z,12.95
2019-03-05T07:40:35.540Z,13.21
2019-03-05T07:41:35.528Z,13.56
2019-03-05T07:42:35.524Z,13.62
2019-03-05T07:43:36.713Z,13.85
2019-03-05T07:44:35.498Z,13.89
2019-03-05T07:45:35.481Z,14.00
2019-03-05T07:46:35.475Z,13.72
2019-03-05T07:47:35.465Z,13.67
2019-03-05T07:48:35.447Z,13.87
2019-03-05T07:49:43.631Z,14.31
2019-03-05T07:50:36.448Z,14.41
2019-03-05T07:51:35.415Z,14.19
2019-03-05T07:52:35.405Z,14.58
2019-03-05T07:53:35.390Z,14.44
2019-03-05T07:54:35.379Z,14.13
2019-03-05T07:55:35.373Z,13.84
2019-03-05T07:56:35.360Z,14.08
2019-03-05T07:57:35.353Z,14.94
2019-03-05T07:58:35.342Z,15.60
2019-03-05T07:59:35.332Z,16.02
2019-03-05T08:00:35.323Z,16.18
2019-03-05T08:01:35.305Z,16.27
2019-03-05T08:02:35.320Z,16.48
2019-03-05T08:03:35.283Z,15.81
2019-03-05T08:04:35.275Z,16.05
2019-03-05T08:05:35.262Z,16.21
2019-03-05T08:06:35.251Z,16.21
2019-03-05T08:07:35.239Z,15.93
2019-03-05T08:08:35.238Z,15.54
2019-03-05T08:09:35.215Z,15.22
2019-03-05T08:10:35.202Z,14.96
2019-03-05T08:11:35.193Z,14.61
2019-03-05T08:12:35.181Z,14.55
2019-03-05T08:13:35.170Z,14.37
2019-03-05T08:14:35.158Z,14.26
2019-03-05T08:15:35.148Z,14.19
2019-03-05T08:16:35.137Z,13.96
2019-03-05T08:17:35.126Z,13.72
2019-03-05T08:18:35.114Z,13.62
2019-03-05T08:19:35.105Z,13.53
2019-03-05T08:20:35.094Z,13.32
2019-03-05T08:21:35.081Z,13.35
2019-03-05T08:22:35.072Z,13.16
2019-03-05T08:23:35.059Z,13.05
2019-03-05T08:24:35.046Z,13.02
2019-03-05T08:25:35.039Z,13.02
2019-03-05T08:26:35.029Z,13.06
2019-03-05T08:27:35.017Z,13.20
2019-03-05T08:28:35.008Z,13.24
2019-03-05T08:29:34.992Z,13.27
2019-03-05T08:30:35.043Z,13.46
2019-03-05T08:31:34.968Z,13.46
2019-03-05T08:32:34.959Z,13.32
2019-03-05T08:33:34.950Z,13.24
2019-03-05T08:34:34.939Z,13.16
2019-03-05T08:35:34.925Z,13.27
2019-03-05T08:36:34.913Z,13.48
2019-03-05T08:37:34.906Z,13.54
2019-03-05T08:38:34.893Z,13.52
2019-03-05T08:39:34.880Z,13.62
2019-03-05T08:40:34.869Z,14.00
2019-03-05T08:41:34.863Z,14.11
2019-03-05T08:42:34.850Z,14.18
2019-03-05T08:43:34.840Z,14.15
2019-03-05T08:44:34.832Z,14.44
2019-03-05T08:45:34.823Z,14.67
2019-03-05T08:46:34.803Z,14.86
2019-03-05T08:47:34.791Z,14.70
2019-03-05T08:48:34.780Z,14.82
2019-03-05T08:49:34.770Z,14.74
2019-03-05T08:50:34.766Z,14.67
2019-03-05T08:51:34.755Z,14.71
2019-03-05T08:52:34.738Z,14.78
2019-03-05T08:53:34.728Z,14.88
2019-03-05T08:54:34.722Z,14.71
2019-03-05T08:55:34.704Z,14.61
2019-03-05T08:56:34.698Z,14.61
2019-03-05T08:57:34.682Z,14.67
2019-03-05T08:58:34.670Z,14.66
2019-03-05T08:59:34.745Z,14.94
2019-03-05T09:00:34.649Z,15.52
2019-03-05T09:01:34.636Z,16.02
2019-03-05T09:02:34.627Z,16.20
2019-03-05T09:03:34.621Z,15.93
2019-03-05T09:04:34.604Z,16.09
2019-03-05T09:05:34.591Z,16.60
2019-03-05T09:06:34.584Z,17.41
2019-03-05T09:07:34.573Z,17.01
2019-03-05T09:08:34.558Z,16.66
2019-03-05T09:09:34.545Z,16.53
2019-03-05T09:10:34.536Z,16.78
2019-03-05T09:11:34.524Z,16.45
2019-03-05T09:12:34.511Z,16.14
2019-03-05T09:13:34.523Z,15.90
2019-03-05T09:14:34.754Z,15.78
2019-03-05T09:15:34.510Z,15.46
2019-03-05T09:16:34.512Z,15.40
2019-03-05T09:17:34.459Z,15.22
2019-03-05T09:18:34.457Z,15.24
2019-03-05T09:19:34.458Z,14.95
2019-03-05T09:20:34.462Z,14.85
2019-03-05T09:21:34.466Z,15.54
2019-03-05T09:22:34.401Z,15.51
2019-03-05T09:23:34.387Z,15.40
2019-03-05T09:24:34.381Z,15.22
2019-03-05T09:25:34.367Z,15.32
2019-03-05T09:26:34.360Z,15.19
2019-03-05T09:27:34.343Z,15.43
2019-03-05T09:28:34.330Z,15.28
2019-03-05T09:29:34.319Z,15.14
2019-03-05T09:30:34.312Z,15.14
2019-03-05T09:31:34.305Z,14.95
2019-03-05T09:32:34.285Z,14.95
2019-03-05T09:33:34.276Z,14.88
2019-03-05T09:34:34.262Z,14.81
2019-03-05T09:35:34.253Z,14.78
2019-03-05T09:36:34.244Z,14.52
2019-03-05T09:37:34.229Z,14.58
2019-03-05T09:38:34.221Z,14.44
2019-03-05T09:39:34.206Z,14.44
2019-03-05T09:40:34.197Z,14.37
2019-03-05T09:41:34.185Z,14.48
2019-03-05T09:42:39.873Z,14.38
2019-03-05T09:43:58.641Z,14.37
2019-03-05T09:44:58.631Z,14.31
2019-03-05T09:45:58.620Z,14.04
2019-03-05T09:46:58.608Z,13.93
2019-03-05T09:47:58.603Z,13.84
2019-03-05T09:48:58.586Z,13.81
2019-03-05T09:49:58.575Z,13.72
2019-03-05T09:50:58.564Z,13.71
2019-03-05T09:51:58.557Z,13.67
2019-03-05T09:52:58.547Z,13.56
2019-03-05T09:53:58.533Z,13.52
2019-03-05T09:54:58.522Z,13.42
2019-03-05T09:55:58.510Z,13.27
2019-03-05T09:56:58.499Z,13.21
2019-03-05T09:58:07.402Z,13.14
2019-03-05T09:58:59.493Z,13.17
2019-03-05T09:59:58.463Z,13.29
2019-03-05T10:00:58.460Z,13.46
2019-03-05T10:01:58.443Z,14.48
2019-03-05T10:02:58.437Z,15.60
2019-03-05T10:03:58.421Z,16.36
2019-03-05T10:04:58.410Z,16.63
2019-03-05T10:05:58.398Z,17.22
2019-03-05T10:06:58.391Z,17.95
2019-03-05T10:07:58.381Z,17.65
2019-03-05T10:08:58.365Z,16.97
2019-03-05T10:09:58.355Z,16.79
2019-03-05T10:10:58.346Z,17.64
2019-03-05T10:11:58.331Z,18.49
2019-03-05T10:12:59.152Z,19.03
2019-03-05T10:13:58.314Z,19.49
2019-03-05T10:14:58.314Z,20.18
2019-03-05T10:15:58.286Z,19.97
2019-03-05T10:16:58.284Z,19.51
2019-03-05T10:17:58.274Z,19.93
2019-03-05T10:18:58.258Z,19.75
2019-03-05T10:19:58.242Z,20.33
2019-03-05T10:20:58.239Z,20.48
2019-03-05T10:21:58.230Z,20.52
2019-03-05T10:22:58.265Z,20.85
2019-03-05T10:23:58.197Z,20.89
2019-03-05T10:25:05.686Z,20.52
2019-03-05T10:26:22.657Z,21.10
2019-03-05T10:27:22.647Z,21.48
2019-03-05T10:28:22.637Z,21.37
2019-03-05T10:29:22.626Z,21.77
2019-03-05T10:30:25.004Z,21.97
2019-03-05T10:31:22.600Z,21.50
2019-03-05T10:32:22.599Z,20.73
2019-03-05T10:33:22.585Z,20.32
2019-03-05T10:34:22.566Z,20.45
2019-03-05T10:35:22.555Z,20.45
2019-03-05T10:36:22.546Z,20.52
2019-03-05T10:37:22.531Z,21.07
2019-03-05T10:38:22.526Z,20.85
2019-03-05T10:39:30.573Z,21.66
2019-03-05T10:40:46.987Z,22.02
2019-03-05T10:41:46.973Z,21.85
2019-03-05T10:42:48.161Z,22.02
2019-03-05T10:43:46.943Z,21.65
2019-03-05T10:44:46.929Z,22.00
2019-03-05T10:45:46.928Z,22.27
2019-03-05T10:46:46.906Z,21.87
2019-03-05T10:47:46.896Z,21.15
2019-03-05T10:48:46.895Z,21.25
2019-03-05T10:49:46.873Z,21.47
2019-03-05T10:50:46.866Z,21.67
2019-03-05T10:51:46.852Z,21.25
2019-03-05T10:52:46.843Z,20.96
2019-03-05T10:53:46.833Z,20.67
2019-03-05T10:54:46.818Z,20.84
2019-03-05T10:55:46.818Z,21.58
2019-03-05T10:56:46.800Z,21.62
2019-03-05T10:57:46.786Z,20.82
2019-03-05T10:58:46.775Z,20.51
2019-03-05T10:59:46.766Z,20.92
2019-03-05T11:00:46.755Z,20.59
2019-03-05T11:01:46.742Z,20.08
2019-03-05T11:02:46.738Z,19.62
2019-03-05T11:03:46.722Z,19.30
2019-03-05T11:04:46.711Z,19.19
2019-03-05T11:05:46.697Z,19.01
2019-03-05T11:06:46.688Z,18.68
2019-03-05T11:07:46.678Z,18.54
2019-03-05T11:08:46.670Z,18.48
2019-03-05T11:09:46.656Z,18.66
2019-03-05T11:10:46.651Z,18.51
2019-03-05T11:11:46.635Z,18.10
2019-03-05T11:12:46.619Z,18.02
2019-03-05T11:13:46.606Z,17.72
2019-03-05T11:14:46.601Z,17.65
2019-03-05T11:15:46.585Z,17.52
2019-03-05T11:16:46.576Z,17.39
2019-03-05T11:17:46.570Z,17.31
2019-03-05T11:18:46.552Z,17.24
2019-03-05T11:19:46.543Z,17.13
2019-03-05T11:20:46.532Z,16.91
2019-03-05T11:21:46.523Z,16.81
2019-03-05T11:22:46.510Z,16.69
2019-03-05T11:23:46.497Z,16.60
2019-03-05T11:24:46.489Z,16.72
2019-03-05T11:25:46.479Z,16.72
2019-03-05T11:26:46.465Z,17.56
2019-03-05T11:27:46.454Z,18.58
2019-03-05T11:28:46.444Z,19.23
2019-03-05T11:29:46.435Z,19.94
2019-03-05T11:30:46.417Z,19.52
2019-03-05T11:31:46.410Z,19.49
2019-03-05T11:32:46.399Z,19.19
2019-03-05T11:33:46.388Z,18.79
2019-03-05T11:34:46.378Z,18.52
2019-03-05T11:35:46.368Z,18.07
2019-03-05T11:36:46.351Z,17.93
2019-03-05T11:37:46.346Z,17.61
2019-03-05T11:38:46.329Z,17.38
2019-03-05T11:39:46.321Z,17.04
2019-03-05T11:40:46.310Z,16.98
2019-03-05T11:41:46.297Z,16.60
2019-03-05T11:42:46.695Z,16.48
2019-03-05T11:43:46.276Z,16.33
2019-03-05T11:44:58.846Z,16.35
2019-03-05T11:46:10.733Z,16.32
2019-03-05T11:47:10.727Z,16.20
2019-03-05T11:48:10.715Z,16.18
2019-03-05T11:49:10.699Z,15.99
2019-03-05T11:50:10.685Z,15.93
2019-03-05T11:51:10.678Z,15.96
2019-03-05T11:52:10.667Z,15.76
2019-03-05T11:53:10.651Z,15.77
2019-03-05T11:54:10.640Z,15.65
2019-03-05T11:55:10.627Z,15.51
2019-03-05T11:56:10.616Z,15.40
2019-03-05T11:57:10.606Z,15.21
2019-03-05T11:58:10.602Z,15.00
2019-03-05T11:59:10.583Z,14.86
2019-03-05T12:00:10.582Z,14.64
2019-03-05T12:01:10.558Z,14.64
2019-03-05T12:02:18.503Z,14.52
2019-03-05T12:03:35.024Z,14.44
2019-03-05T12:04:35.031Z,14.37
2019-03-05T12:05:35.021Z,14.31
2019-03-05T12:06:35.022Z,14.26
2019-03-05T12:07:35.026Z,14.15
2019-03-05T12:08:34.966Z,14.16
2019-03-05T12:09:34.950Z,14.15
2019-03-05T12:10:34.940Z,14.22
2019-03-05T12:11:34.928Z,14.33
2019-03-05T12:12:34.926Z,14.69
2019-03-05T12:13:34.909Z,15.85
2019-03-05T12:14:34.898Z,16.54
2019-03-05T12:15:34.882Z,17.25
2019-03-05T12:16:34.873Z,17.70
2019-03-05T12:17:34.865Z,18.33
2019-03-05T12:18:34.851Z,18.79
2019-03-05T12:19:34.838Z,19.19
2019-03-05T12:20:34.830Z,19.55
2019-03-05T12:21:34.824Z,19.77
2019-03-05T12:22:34.807Z,20.05
2019-03-05T12:23:34.794Z,19.92
2019-03-05T12:24:34.787Z,20.18
2019-03-05T12:25:36.090Z,20.55
2019-03-05T12:26:34.769Z,20.81
2019-03-05T12:27:35.965Z,21.10
2019-03-05T12:28:34.742Z,20.91
2019-03-05T12:29:34.728Z,20.39
2019-03-05T12:30:34.724Z,20.57
2019-03-05T12:31:34.705Z,20.74
2019-03-05T12:32:34.699Z,21.15
2019-03-05T12:33:34.703Z,21.78
2019-03-05T12:34:34.670Z,21.82
2019-03-05T12:35:35.614Z,20.94
2019-03-05T12:36:34.650Z,20.57
2019-03-05T12:37:34.637Z,20.30
2019-03-05T12:38:34.630Z,20.08
2019-03-05T12:39:34.614Z,20.12
2019-03-05T12:40:34.610Z,20.22
2019-03-05T12:41:34.591Z,19.93
2019-03-05T12:42:34.580Z,20.11
2019-03-05T12:43:34.579Z,20.73
2019-03-05T12:44:34.558Z,21.34
2019-03-05T12:45:34.546Z,21.56
2019-03-05T12:46:34.540Z,21.85
2019-03-05T12:47:34.528Z,21.99
2019-03-05T12:48:39.916Z,21.45
2019-03-05T12:49:58.978Z,21.55
2019-03-05T12:50:58.966Z,21.74
2019-03-05T12:51:58.960Z,22.05
2019-03-05T12:52:58.952Z,22.21
2019-03-05T12:53:58.933Z,22.33
2019-03-05T12:54:58.928Z,22.66
2019-03-05T12:55:58.919Z,23.07
2019-03-05T12:56:58.901Z,22.95
2019-03-05T12:57:58.891Z,22.89
2019-03-05T12:58:58.878Z,22.42
2019-03-05T12:59:58.867Z,21.74
2019-03-05T13:00:58.861Z,21.28
2019-03-05T13:01:58.862Z,20.67
2019-03-05T13:02:58.845Z,20.08
2019-03-05T13:03:58.829Z,19.70
2019-03-05T13:04:58.812Z,19.30
2019-03-05T13:05:58.800Z,19.01
2019-03-05T13:06:58.791Z,18.71
2019-03-05T13:07:58.781Z,18.54
2019-03-05T13:08:58.766Z,18.23
2019-03-05T13:09:58.764Z,18.00
2019-03-05T13:10:58.749Z,17.64
2019-03-05T13:11:58.742Z,17.64
2019-03-05T13:12:58.724Z,17.82
2019-03-05T13:14:06.044Z,18.05
2019-03-05T13:14:59.719Z,18.34
2019-03-05T13:15:58.689Z,18.08
2019-03-05T13:16:58.679Z,18.16
2019-03-05T13:17:58.668Z,18.33
2019-03-05T13:18:58.656Z,18.56
2019-03-05T13:19:58.645Z,18.78
2019-03-05T13:20:58.642Z,18.49
2019-03-05T13:21:58.622Z,17.98
2019-03-05T13:22:58.618Z,18.46
2019-03-05T13:23:58.600Z,18.76
2019-03-05T13:24:58.588Z,18.97
2019-03-05T13:25:58.579Z,19.18
2019-03-05T13:26:58.570Z,19.31
2019-03-05T13:28:02.285Z,19.51
2019-03-05T13:28:58.546Z,19.70
2019-03-05T13:29:58.538Z,19.81
2019-03-05T13:31:00.468Z,19.89
2019-03-05T13:32:22.987Z,20.02
2019-03-05T13:33:22.975Z,20.09
2019-03-05T13:34:22.966Z,20.05
2019-03-05T13:35:25.450Z,20.00
2019-03-05T13:36:50.619Z,19.93
2019-03-05T13:37:47.407Z,19.99
2019-03-05T13:38:47.396Z,19.41
2019-03-05T13:39:47.389Z,18.82
2019-03-05T13:40:47.380Z,18.74
2019-03-05T13:41:50.459Z,18.63
2019-03-05T13:43:11.834Z,18.74
2019-03-05T13:44:11.820Z,18.23
2019-03-05T13:45:11.806Z,17.70
2019-03-05T13:46:11.793Z,17.34
2019-03-05T13:47:13.412Z,16.97
2019-03-05T13:48:14.877Z,16.83
2019-03-05T13:49:40.664Z,16.75
2019-03-05T13:50:36.230Z,16.53
2019-03-05T13:51:36.219Z,16.53
2019-03-05T13:52:37.047Z,16.35
2019-03-05T13:53:36.210Z,16.24
2019-03-05T13:54:36.817Z,16.32
2019-03-05T13:55:36.175Z,16.42
2019-03-05T13:56:37.872Z,16.54
2019-03-05T13:57:36.154Z,16.68
2019-03-05T13:58:36.140Z,16.75
2019-03-05T13:59:36.129Z,16.63
2019-03-05T14:00:36.120Z,16.61
2019-03-05T14:01:36.107Z,16.54
2019-03-05T14:02:36.100Z,16.43
2019-03-05T14:03:36.087Z,16.23
2019-03-05T14:04:36.075Z,16.18
2019-03-05T14:05:36.061Z,15.88
2019-03-05T14:06:36.058Z,15.81
2019-03-05T14:07:36.046Z,15.68
2019-03-05T14:08:36.035Z,15.52
2019-03-05T14:09:36.015Z,15.31
2019-03-05T14:10:36.034Z,15.24
2019-03-05T14:11:36.006Z,15.09
2019-03-05T14:12:35.989Z,15.02
2019-03-05T14:13:35.970Z,15.00
2019-03-05T14:14:35.960Z,14.98
2019-03-05T14:15:35.973Z,14.78
2019-03-05T14:16:35.951Z,14.77
2019-03-05T14:17:35.948Z,14.71
2019-03-05T14:18:35.918Z,14.70
2019-03-05T14:19:35.934Z,14.59
2019-03-05T14:20:35.906Z,14.45
2019-03-05T14:21:35.881Z,14.36
2019-03-05T14:22:35.891Z,14.31
2019-03-05T14:23:35.951Z,14.27
2019-03-05T14:24:35.938Z,14.21
2019-03-05T14:25:35.848Z,14.03
2019-03-05T14:26:35.833Z,14.00
2019-03-05T14:27:35.836Z,14.11
2019-03-05T14:28:35.803Z,14.00
2019-03-05T14:29:35.803Z,13.97
2019-03-05T14:30:35.782Z,13.93
2019-03-05T14:31:35.796Z,14.03
2019-03-05T14:32:35.852Z,13.97
2019-03-05T14:33:35.777Z,14.03
2019-03-05T14:34:35.736Z,14.03
2019-03-05T14:35:35.720Z,14.00
2019-03-05T14:36:35.738Z,14.03
2019-03-05T14:37:35.722Z,13.96
2019-03-05T14:38:35.716Z,13.97
2019-03-05T14:39:35.689Z,14.12
2019-03-05T14:40:37.848Z,14.04
2019-03-05T14:41:35.654Z,14.00
2019-03-05T14:42:35.673Z,13.97
2019-03-05T14:43:35.635Z,13.84
2019-03-05T14:44:39.905Z,13.87
2019-03-05T14:45:35.633Z,13.95
2019-03-05T14:46:35.675Z,13.82
2019-03-05T14:47:35.658Z,14.00
2019-03-05T14:48:35.586Z,13.95
2019-03-05T14:49:35.575Z,13.95
2019-03-05T14:50:35.583Z,13.97
2019-03-05T14:51:35.583Z,13.95
2019-03-05T14:52:35.531Z,13.90
2019-03-05T14:53:35.544Z,13.93
2019-03-05T14:54:35.511Z,13.75
2019-03-05T14:55:35.527Z,13.70
2019-03-05T14:56:35.517Z,13.62
2019-03-05T14:57:35.471Z,13.71
2019-03-05T14:58:35.496Z,13.74
2019-03-05T14:59:35.470Z,13.75
2019-03-05T15:00:35.458Z,13.70
2019-03-05T15:01:35.445Z,13.74
2019-03-05T15:02:35.457Z,13.62
2019-03-05T15:03:35.435Z,13.67
2019-03-05T15:04:35.433Z,13.62
2019-03-05T15:05:35.391Z,13.71
2019-03-05T15:06:35.370Z,13.50
2019-03-05T15:07:35.395Z,13.53
2019-03-05T15:08:35.374Z,13.50
2019-03-05T15:09:35.343Z,13.53
2019-03-05T15:10:35.336Z,13.50
2019-03-05T15:11:35.341Z,13.50
2019-03-05T15:12:35.309Z,13.39
2019-03-05T15:13:35.314Z,13.38
2019-03-05T15:14:35.279Z,13.39
2019-03-05T15:15:35.268Z,13.37
2019-03-05T15:16:35.265Z,13.30
2019-03-05T15:17:35.281Z,13.41
2019-03-05T15:18:35.249Z,13.39
2019-03-05T15:19:35.260Z,13.29
2019-03-05T15:20:35.233Z,13.17
2019-03-05T15:21:35.223Z,13.14
2019-03-05T15:22:35.199Z,13.05
2019-03-05T15:23:35.207Z,13.04
2019-03-05T15:24:35.188Z,12.96
2019-03-05T15:25:35.190Z,12.86
2019-03-05T15:26:35.159Z,12.83
2019-03-05T15:27:35.133Z,12.66
2019-03-05T15:28:35.145Z,12.69
2019-03-05T15:29:35.160Z,12.65
2019-03-05T15:30:35.126Z,12.61
2019-03-05T15:31:35.093Z,12.52
2019-03-05T15:32:35.078Z,12.43
2019-03-05T15:33:35.066Z,12.40
2019-03-05T15:34:35.080Z,12.43
2019-03-05T15:35:35.077Z,12.46
2019-03-05T15:36:35.082Z,12.40
2019-03-05T15:37:35.063Z,12.32
2019-03-05T15:38:35.011Z,12.39
2019-03-05T15:39:35.042Z,12.31
2019-03-05T15:40:35.150Z,12.40
2019-03-05T15:41:35.035Z,12.29
2019-03-05T15:42:34.967Z,12.37
2019-03-05T15:43:34.983Z,12.21
2019-03-05T15:44:34.944Z,12.12
2019-03-05T15:45:34.991Z,12.03
2019-03-05T15:46:34.938Z,12.10
2019-03-05T15:47:34.956Z,12.07
2019-03-05T15:48:34.899Z,11.98
2019-03-05T15:49:34.927Z,11.95
2019-03-05T15:50:34.877Z,11.96
2019-03-05T15:51:34.880Z,11.66
2019-03-05T15:52:34.896Z,11.73
2019-03-05T15:53:34.850Z,11.74
2019-03-05T15:54:34.831Z,11.79
2019-03-05T15:55:34.825Z,11.70
2019-03-05T15:56:34.811Z,11.62
2019-03-05T15:57:34.795Z,11.54
2019-03-05T15:58:34.783Z,11.52
2019-03-05T15:59:34.800Z,11.45
2019-03-05T16:00:34.761Z,11.40
2019-03-05T16:01:34.749Z,11.37
2019-03-05T16:02:34.755Z,11.28
2019-03-05T16:03:34.725Z,11.30
2019-03-05T16:04:35.921Z,11.28
2019-03-05T16:05:34.702Z,11.31
2019-03-05T16:06:35.270Z,11.30
2019-03-05T16:07:34.682Z,11.31
2019-03-05T16:08:34.670Z,11.31
2019-03-05T16:09:35.026Z,11.34
2019-03-05T16:10:34.656Z,11.27
2019-03-05T16:11:35.236Z,11.33
2019-03-05T16:12:34.621Z,11.30
2019-03-05T16:13:34.607Z,11.34
2019-03-05T16:14:34.600Z,11.31
2019-03-05T16:15:34.587Z,11.25
2019-03-05T16:16:34.574Z,11.18
2019-03-05T16:17:34.563Z,11.03
2019-03-05T16:18:34.550Z,11.00
2019-03-05T16:19:34.537Z,10.97
2019-03-05T16:20:34.529Z,10.96
2019-03-05T16:21:37.214Z,10.96
2019-03-05T16:22:58.987Z,10.81
2019-03-05T16:24:01.689Z,10.74
2019-03-05T16:24:58.968Z,10.81
2019-03-05T16:25:58.944Z,10.75
2019-03-05T16:26:58.938Z,10.71
2019-03-05T16:28:02.179Z,10.61
2019-03-05T16:28:59.928Z,10.63
2019-03-05T16:29:58.901Z,10.45
2019-03-05T16:30:58.894Z,10.26
2019-03-05T16:31:58.878Z,10.27
2019-03-05T16:33:00.011Z,10.12
2019-03-05T16:33:58.851Z,9.96
2019-03-05T16:34:58.840Z,9.91
2019-03-05T16:35:58.846Z,9.84
2019-03-05T16:37:01.963Z,9.71
2019-03-05T16:38:23.333Z,9.71
2019-03-05T16:39:27.451Z,9.59
2019-03-05T16:40:47.782Z,9.68
2019-03-05T16:41:47.773Z,9.65
2019-03-05T16:42:47.763Z,9.65
2019-03-05T16:43:47.747Z,9.56
2019-03-05T16:44:47.737Z,9.46
2019-03-05T16:45:47.726Z,9.51
2019-03-05T16:46:47.717Z,9.46
2019-03-05T16:47:47.707Z,9.35
2019-03-05T16:48:47.692Z,9.41
2019-03-05T16:49:47.685Z,9.39
2019-03-05T16:50:47.677Z,9.32
2019-03-05T16:51:47.669Z,9.33
2019-03-05T16:52:47.650Z,9.35
2019-03-05T16:53:47.645Z,9.32
2019-03-05T16:54:47.636Z,9.31
2019-03-05T16:55:47.619Z,9.33
2019-03-05T16:56:47.604Z,9.39
2019-03-05T16:57:47.591Z,9.33
2019-03-05T16:58:47.582Z,9.41
2019-03-05T16:59:47.570Z,9.36
2019-03-05T17:00:49.192Z,9.33
2019-03-05T17:01:47.549Z,9.23
2019-03-05T17:02:47.536Z,9.33
2019-03-05T17:03:47.526Z,9.32
2019-03-05T17:04:47.520Z,9.25
2019-03-05T17:05:47.510Z,9.21
2019-03-05T17:06:47.495Z,9.21
2019-03-05T17:07:47.483Z,9.21
2019-03-05T17:08:47.473Z,9.26
2019-03-05T17:09:47.464Z,9.21
2019-03-05T17:10:47.448Z,9.21
2019-03-05T17:11:47.439Z,9.21
2019-03-05T17:12:47.427Z,9.13
2019-03-05T17:13:47.416Z,9.15
2019-03-05T17:14:47.403Z,9.07
2019-03-05T17:15:47.393Z,9.10
2019-03-05T17:16:47.383Z,9.07
2019-03-05T17:17:47.375Z,9.10
2019-03-05T17:18:47.364Z,9.10
2019-03-05T17:19:47.349Z,9.04
2019-03-05T17:20:47.337Z,9.01
2019-03-05T17:21:47.326Z,9.01
2019-03-05T17:22:47.318Z,8.88
2019-03-05T17:23:47.306Z,8.92
2019-03-05T17:24:47.292Z,8.88
2019-03-05T17:25:47.282Z,8.85
2019-03-05T17:26:47.269Z,8.90
2019-03-05T17:27:47.258Z,8.90
2019-03-05T17:28:47.249Z,8.92
2019-03-05T17:29:47.239Z,8.81
2019-03-05T17:30:47.228Z,8.83
2019-03-05T17:31:47.215Z,8.75
2019-03-05T17:32:47.205Z,8.78
2019-03-05T17:33:47.190Z,8.81
2019-03-05T17:34:47.180Z,8.75
2019-03-05T17:35:47.169Z,8.80
2019-03-05T17:36:47.157Z,8.68
2019-03-05T17:37:47.146Z,8.72
2019-03-05T17:38:47.135Z,8.72
2019-03-05T17:39:47.125Z,8.71
2019-03-05T17:40:47.112Z,8.77
2019-03-05T17:41:47.106Z,8.72
2019-03-05T17:42:47.091Z,8.74
2019-03-05T17:43:47.081Z,8.70
2019-03-05T17:44:47.068Z,8.59
2019-03-05T17:45:47.063Z,8.50
2019-03-05T17:46:47.048Z,8.53
2019-03-05T17:47:47.038Z,8.56
2019-03-05T17:48:47.024Z,8.52
2019-03-05T17:49:47.008Z,8.50
2019-03-05T17:50:46.999Z,8.47
2019-03-05T17:51:46.992Z,8.38
2019-03-05T17:52:46.978Z,8.41
2019-03-05T17:53:46.964Z,8.37
2019-03-05T17:54:46.951Z,8.31
2019-03-05T17:55:46.940Z,8.38
2019-03-05T17:56:46.932Z,8.20
2019-03-05T17:57:46.921Z,8.33
2019-03-05T17:58:46.908Z,8.33
2019-03-05T17:59:46.895Z,8.41
2019-03-05T18:00:46.885Z,8.34
2019-03-05T18:01:46.872Z,8.37
2019-03-05T18:02:46.859Z,8.27
2019-03-05T18:03:46.851Z,8.30
2019-03-05T18:04:46.836Z,8.33
2019-03-05T18:05:46.833Z,8.34
2019-03-05T18:06:46.814Z,8.33
2019-03-05T18:07:46.803Z,8.28
2019-03-05T18:08:46.790Z,8.28
2019-03-05T18:09:46.781Z,8.30
2019-03-05T18:10:46.768Z,8.25
2019-03-05T18:11:46.759Z,8.23
2019-03-05T18:12:46.750Z,8.22
2019-03-05T18:13:46.734Z,8.25
2019-03-05T18:14:46.724Z,8.19
2019-03-05T18:15:46.713Z,8.25
2019-03-05T18:16:46.699Z,8.16
2019-03-05T18:17:46.689Z,8.20